Aérodrome :
LOGIN :

S'inscrire | Disclaimer

   EN    FR    IT 

 










Légende :    VFR   VFR Marginal   IFR   IFR Intensif   IFR Très Intensif
Visi : 
Plafond : 
>= 8 km
>= 3000ft
5 à 8 km
1000 à 3000 ft
1500m à 5 km
500 à 1000 ft
800 à 1500m
200 à 500 ft
< 800m
< 200 ft
Symboles :   Orages  Brouillard  Fortes neiges  Fortes précipitations  Vent > 20 kt
SIGMETs :   Divers  Orages  Givrage  Turbulence  Onde Orograph.  Cendres Volcan.






- Altitude de l'aérodrome : 1187 ft


LIBV - Gioia del Colle Bari

DERNIER METAR :
  • 130755Z 16005KT CAVOK 07/04 Q1001 RMK FEW FEW200 VIS MIN 9999 WIND THR32 16007KT WIND THR14 17004KT BLU

METARs EXPIRÉS :
  • 130655Z 20007KT CAVOK 05/03 Q1001 RMK SKC VIS MIN 9999 WIND THR32 20006KT WIND THR14 19007KT BLU
  • 130555Z 20005KT CAVOK 05/03 Q1001 RMK SKC VIS MIN 9999 WIND THR32 18007KT WIND THR14 24005KT BLU
  • 130455Z VRB01KT CAVOK 06/03 Q1001 RMK SCT SCT200 VIS MIN 9999 WIND THR32 25003KT WIND THR14 VRB02KT BLU

TAF TAF LIBV
Valide du 13 à 06h jusqu'au 13 à 15h UTC


130500Z 1306/1315 20005KT 9999 FEW050



MET'MAP, la Météo Aéronautique d'un coup d'oeil ! - Copyright ORBIFLY Décembre 2007 - Disclaimer

ORBIFLY MET'MAP TEAM :

Programmation & Développement : Alexandra Zaïnal
Sur une idée originale de : Baudouin d'Aumeries
Assistance à la programmation : Marc-Olivier Méhu
Soutien technique & logistique : Manuel Goepfert

Contact : metmap@orbifly.com




SOURCES & CREDITS :

   NOAA